createdAt,value
2023-06-01T00:00:57.405Z,101515.80
2023-06-01T00:02:29.421Z,101517.40
2023-06-01T00:04:01.535Z,101521.80
2023-06-01T00:05:33.486Z,101517.40
2023-06-01T00:07:06.474Z,101523.20
2023-06-01T00:08:38.314Z,101521.00
2023-06-01T00:10:10.741Z,101523.60
2023-06-01T00:11:42.629Z,101525.40
2023-06-01T00:13:14.469Z,101523.80
2023-06-01T00:14:46.346Z,101521.40
2023-06-01T00:16:18.792Z,101522.00
2023-06-01T00:17:52.594Z,101523.80
2023-06-01T00:19:27.320Z,101518.80
2023-06-01T00:21:01.650Z,101517.00
2023-06-01T00:22:35.492Z,101517.60
2023-06-01T00:24:08.426Z,101518.60
2023-06-01T00:25:40.469Z,101518.00
2023-06-01T00:27:12.273Z,101519.00
2023-06-01T00:28:44.147Z,101515.80
2023-06-01T00:30:16.020Z,101514.60
2023-06-01T00:31:48.021Z,101512.80
2023-06-01T00:33:21.416Z,101510.80
2023-06-01T00:34:54.957Z,101509.80
2023-06-01T00:36:26.743Z,101508.80
2023-06-01T00:37:58.530Z,101506.00
2023-06-01T00:39:30.688Z,101509.60
2023-06-01T00:41:02.809Z,101508.20
2023-06-01T00:42:34.805Z,101503.00
2023-06-01T00:44:06.664Z,101503.60
2023-06-01T00:45:38.831Z,101500.80
2023-06-01T00:47:10.877Z,101496.80
2023-06-01T00:48:42.806Z,101502.40
2023-06-01T00:50:14.950Z,101502.60
2023-06-01T00:51:47.148Z,101504.80
2023-06-01T00:53:21.146Z,101500.60
2023-06-01T00:54:53.240Z,101495.20
2023-06-01T00:56:25.056Z,101491.80
2023-06-01T00:57:56.917Z,101492.40
2023-06-01T00:59:28.821Z,101493.40
2023-06-01T01:01:02.754Z,101494.20
2023-06-01T01:02:38.311Z,101493.60
2023-06-01T01:04:11.763Z,101489.60
2023-06-01T01:05:43.970Z,101495.20
2023-06-01T01:07:48.957Z,101494.60
2023-06-01T01:09:50.490Z,101491.40
2023-06-01T01:11:30.427Z,101490.60
2023-06-01T01:13:13.175Z,101493.80
2023-06-01T01:14:59.286Z,101497.00
2023-06-01T01:16:54.480Z,101500.80
2023-06-01T01:18:36.910Z,101504.20
2023-06-01T01:20:16.353Z,101508.40
2023-06-01T01:22:27.755Z,101509.00
2023-06-01T01:24:49.514Z,101509.80
2023-06-01T01:26:46.123Z,101506.60
2023-06-01T01:28:50.993Z,101505.20
2023-06-01T01:30:29.448Z,101500.80
2023-06-01T01:32:05.193Z,101504.60
2023-06-01T01:33:39.298Z,101503.00
2023-06-01T01:35:13.052Z,101503.20
2023-06-01T01:36:45.248Z,101504.00
2023-06-01T01:38:17.201Z,101508.40
2023-06-01T01:39:49.061Z,101504.20
2023-06-01T01:41:23.159Z,101507.00
2023-06-01T01:42:56.238Z,101510.20
2023-06-01T01:44:30.406Z,101508.40
2023-06-01T01:46:27.296Z,101506.20
2023-06-01T01:48:33.109Z,101504.60
2023-06-01T01:50:11.349Z,101507.60
2023-06-01T01:52:01.379Z,101506.00
2023-06-01T01:53:37.059Z,101505.40
2023-06-01T01:55:10.721Z,101503.20
2023-06-01T01:56:44.724Z,101500.00
2023-06-01T01:58:17.632Z,101497.00
2023-06-01T01:59:51.652Z,101501.00
2023-06-01T02:01:24.716Z,101500.60
2023-06-01T02:02:56.614Z,101501.20
2023-06-01T02:04:28.451Z,101500.80
2023-06-01T02:06:00.207Z,101506.60
2023-06-01T02:07:34.858Z,101504.60
2023-06-01T02:09:08.300Z,101503.40
2023-06-01T02:10:41.934Z,101505.40
2023-06-01T02:12:13.934Z,101508.60
2023-06-01T02:13:45.727Z,101503.40
2023-06-01T02:15:17.500Z,101509.60
2023-06-01T02:16:49.432Z,101508.00
2023-06-01T02:18:21.511Z,101509.20
2023-06-01T02:19:53.371Z,101510.60
2023-06-01T02:21:27.148Z,101512.40
2023-06-01T02:22:58.982Z,101507.40
2023-06-01T02:24:31.284Z,101510.60
2023-06-01T02:26:03.083Z,101508.00
2023-06-01T02:27:34.844Z,101508.40
2023-06-01T02:29:07.819Z,101507.80
2023-06-01T02:30:39.629Z,101510.00
2023-06-01T02:32:11.589Z,101513.40
2023-06-01T02:33:43.595Z,101510.80
2023-06-01T02:35:16.099Z,101511.80
2023-06-01T02:36:50.562Z,101512.60
2023-06-01T02:38:22.687Z,101506.40
2023-06-01T02:39:54.496Z,101505.00
2023-06-01T02:41:26.821Z,101512.00
2023-06-01T02:42:58.556Z,101514.00
2023-06-01T02:44:30.504Z,101514.20
2023-06-01T02:46:02.912Z,101510.80
2023-06-01T02:47:35.062Z,101511.00
2023-06-01T02:49:07.426Z,101512.60
2023-06-01T02:50:39.174Z,101510.40
2023-06-01T02:52:11.000Z,101510.40
2023-06-01T02:53:43.633Z,101512.80
2023-06-01T02:55:16.761Z,101511.00
2023-06-01T02:57:11.574Z,101515.40
2023-06-01T02:58:49.552Z,101511.00
2023-06-01T03:00:29.141Z,101507.60
2023-06-01T03:02:01.016Z,101506.20
2023-06-01T03:03:33.033Z,101508.20
2023-06-01T03:05:07.228Z,101504.80
2023-06-01T03:06:40.794Z,101501.40
2023-06-01T03:08:28.025Z,101505.00
2023-06-01T03:09:59.770Z,101508.00
2023-06-01T03:11:50.110Z,101507.20
2023-06-01T03:13:22.171Z,101510.20
2023-06-01T03:14:53.960Z,101512.60
2023-06-01T03:16:26.925Z,101511.80
2023-06-01T03:18:09.807Z,101509.60
2023-06-01T03:19:41.779Z,101512.00
2023-06-01T03:21:30.656Z,101507.20
2023-06-01T03:23:02.741Z,101505.60
2023-06-01T03:24:35.381Z,101509.20
2023-06-01T03:26:08.155Z,101506.80
2023-06-01T03:27:41.952Z,101508.00
2023-06-01T03:29:14.053Z,101512.60
2023-06-01T03:30:47.792Z,101515.80
2023-06-01T03:32:19.574Z,101518.40
2023-06-01T03:33:51.738Z,101516.40
2023-06-01T03:35:23.626Z,101513.20
2023-06-01T03:36:55.443Z,101516.60
2023-06-01T03:38:27.246Z,101511.80
2023-06-01T03:39:59.201Z,101511.60
2023-06-01T03:41:33.202Z,101514.80
2023-06-01T03:43:05.019Z,101515.20
2023-06-01T03:44:37.805Z,101517.60
2023-06-01T03:46:10.139Z,101512.60
2023-06-01T03:47:42.564Z,101510.80
2023-06-01T03:49:14.483Z,101511.40
2023-06-01T03:50:46.901Z,101513.80
2023-06-01T03:52:19.353Z,101516.20
2023-06-01T03:53:51.314Z,101513.20
2023-06-01T03:55:23.760Z,101509.60
2023-06-01T03:57:09.082Z,101510.40
2023-06-01T03:58:40.825Z,101513.40
2023-06-01T04:00:19.417Z,101513.40
2023-06-01T04:01:57.227Z,101508.20
2023-06-01T04:03:29.251Z,101514.60
2023-06-01T04:05:01.795Z,101512.60
2023-06-01T04:06:36.588Z,101512.20
2023-06-01T04:08:10.043Z,101517.40
2023-06-01T04:09:42.398Z,101516.60
2023-06-01T04:11:14.976Z,101511.80
2023-06-01T04:12:50.243Z,101523.60
2023-06-01T04:14:23.028Z,101521.00
2023-06-01T04:15:54.970Z,101518.80
2023-06-01T04:17:26.985Z,101518.60
2023-06-01T04:18:58.952Z,101520.20
2023-06-01T04:20:35.961Z,101518.20
2023-06-01T04:22:07.902Z,101517.60
2023-06-01T04:23:39.889Z,101519.20
2023-06-01T04:25:18.044Z,101519.60
2023-06-01T04:26:51.557Z,101518.20
2023-06-01T04:28:25.526Z,101519.40
2023-06-01T04:29:59.974Z,101522.40
2023-06-01T04:31:34.297Z,101522.00
2023-06-01T04:33:06.814Z,101524.20
2023-06-01T04:34:40.298Z,101525.80
2023-06-01T04:36:13.897Z,101524.60
2023-06-01T04:37:47.455Z,101526.20
2023-06-01T04:39:19.483Z,101525.00
2023-06-01T04:40:54.680Z,101526.00
2023-06-01T04:42:27.033Z,101524.80
2023-06-01T04:43:59.356Z,101526.40
2023-06-01T04:45:39.357Z,101527.80
2023-06-01T04:47:11.231Z,101528.80
2023-06-01T04:48:45.877Z,101528.80
2023-06-01T04:50:18.196Z,101526.20
2023-06-01T04:51:52.810Z,101524.00
2023-06-01T04:53:24.621Z,101525.80
2023-06-01T04:54:56.592Z,101525.00
2023-06-01T04:56:28.410Z,101519.80
2023-06-01T04:58:00.322Z,101521.60
2023-06-01T04:59:32.163Z,101518.60
2023-06-01T05:01:04.001Z,101517.60
2023-06-01T05:02:36.059Z,101517.60
2023-06-01T05:04:07.868Z,101522.20
2023-06-01T05:05:41.319Z,101520.00
2023-06-01T05:07:13.473Z,101516.60
2023-06-01T05:08:45.241Z,101517.00
2023-06-01T05:10:17.762Z,101517.80
2023-06-01T05:11:50.716Z,101518.20
2023-06-01T05:13:22.677Z,101512.20
2023-06-01T05:14:54.558Z,101513.40
2023-06-01T05:16:26.588Z,101511.80
2023-06-01T05:18:22.171Z,101514.20
2023-06-01T05:19:54.285Z,101509.80
2023-06-01T05:21:26.290Z,101511.80
2023-06-01T05:22:58.510Z,101514.00
2023-06-01T05:24:30.711Z,101514.00
2023-06-01T05:26:06.991Z,101514.80
2023-06-01T05:27:40.177Z,101512.40
2023-06-01T05:29:12.358Z,101516.60
2023-06-01T05:30:44.324Z,101513.80
2023-06-01T05:32:16.550Z,101513.40
2023-06-01T05:33:49.813Z,101514.40
2023-06-01T05:35:22.016Z,101516.20
2023-06-01T05:36:54.785Z,101517.00
2023-06-01T05:38:26.757Z,101515.80
2023-06-01T05:39:58.641Z,101517.80
2023-06-01T05:41:30.603Z,101521.60
2023-06-01T05:43:03.180Z,101520.40
2023-06-01T05:44:35.089Z,101521.20
2023-06-01T05:46:07.844Z,101516.20
2023-06-01T05:47:39.927Z,101518.20
2023-06-01T05:49:11.858Z,101521.60
2023-06-01T05:50:43.801Z,101520.60
2023-06-01T05:52:15.646Z,101522.60
2023-06-01T05:53:48.239Z,101527.00
2023-06-01T05:55:20.653Z,101525.40
2023-06-01T05:56:52.805Z,101525.60
2023-06-01T05:58:24.977Z,101527.20
2023-06-01T05:59:56.758Z,101522.80
2023-06-01T06:01:28.528Z,101523.40
2023-06-01T06:03:00.357Z,101522.80
2023-06-01T06:04:32.398Z,101521.00
2023-06-01T06:06:04.583Z,101523.40
2023-06-01T06:07:36.996Z,101519.20
2023-06-01T06:09:08.788Z,101516.80
2023-06-01T06:10:40.668Z,101517.00
2023-06-01T06:12:12.564Z,101519.00
2023-06-01T06:13:44.350Z,101513.80
2023-06-01T06:15:16.240Z,101512.20
2023-06-01T06:16:48.048Z,101510.80
2023-06-01T06:18:20.572Z,101510.40
2023-06-01T06:19:52.620Z,101507.00
2023-06-01T06:21:24.611Z,101511.00
2023-06-01T06:22:56.591Z,101512.60
2023-06-01T06:24:28.354Z,101515.60
2023-06-01T06:26:00.222Z,101520.40
2023-06-01T06:27:32.014Z,101518.60
2023-06-01T06:29:03.797Z,101519.20
2023-06-01T06:30:35.669Z,101509.00
2023-06-01T06:32:08.052Z,101510.20
2023-06-01T06:33:39.859Z,101508.60
2023-06-01T06:35:14.639Z,101510.20
2023-06-01T06:36:47.663Z,101509.20
2023-06-01T06:38:19.510Z,101508.00
2023-06-01T06:39:51.501Z,101513.00
2023-06-01T06:41:24.317Z,101511.60
2023-06-01T06:42:56.064Z,101512.00
2023-06-01T06:44:27.951Z,101512.00
2023-06-01T06:45:59.773Z,101514.20
2023-06-01T06:47:32.244Z,101516.60
2023-06-01T06:49:04.064Z,101518.40
2023-06-01T06:50:36.660Z,101515.40
2023-06-01T06:52:10.239Z,101516.40
2023-06-01T06:53:42.011Z,101520.20
2023-06-01T06:55:13.721Z,101522.00
2023-06-01T06:56:45.950Z,101522.20
2023-06-01T06:58:17.725Z,101522.40
2023-06-01T06:59:49.522Z,101527.00
2023-06-01T07:01:21.721Z,101530.40
2023-06-01T07:02:54.972Z,101528.40
2023-06-01T07:04:30.036Z,101528.80
2023-06-01T07:06:02.173Z,101536.00
2023-06-01T07:07:33.941Z,101536.20
2023-06-01T07:09:07.150Z,101532.80
2023-06-01T07:10:39.000Z,101536.60
2023-06-01T07:12:10.975Z,101536.80
2023-06-01T07:13:42.759Z,101537.80
2023-06-01T07:15:14.672Z,101534.20
2023-06-01T07:16:47.459Z,101539.20
2023-06-01T07:18:19.467Z,101531.40
2023-06-01T07:19:51.312Z,101534.80
2023-06-01T07:21:23.263Z,101530.20
2023-06-01T07:22:55.197Z,101528.80
2023-06-01T07:24:27.375Z,101528.80
2023-06-01T07:25:59.457Z,101532.80
2023-06-01T07:27:31.218Z,101531.40
2023-06-01T07:29:03.153Z,101529.00
2023-06-01T07:30:36.052Z,101530.60
2023-06-01T07:32:08.236Z,101526.00
2023-06-01T07:33:40.231Z,101530.60
2023-06-01T07:35:12.040Z,101530.60
2023-06-01T07:36:46.446Z,101533.80
2023-06-01T07:38:18.240Z,101528.60
2023-06-01T07:39:50.087Z,101536.80
2023-06-01T07:41:22.261Z,101535.60
2023-06-01T07:42:54.022Z,101534.60
2023-06-01T07:44:25.891Z,101534.00
2023-06-01T07:45:58.561Z,101530.40
2023-06-01T07:47:31.138Z,101528.00
2023-06-01T07:49:04.261Z,101528.60
2023-06-01T07:50:37.492Z,101522.60
2023-06-01T07:52:09.876Z,101528.80
2023-06-01T07:53:41.685Z,101535.00
2023-06-01T07:55:13.506Z,101538.00
2023-06-01T07:56:45.423Z,101544.60
2023-06-01T07:58:17.206Z,101540.80
2023-06-01T07:59:49.001Z,101541.00
2023-06-01T08:01:20.783Z,101543.80
2023-06-01T08:02:52.765Z,101540.80
2023-06-01T08:04:25.362Z,101546.60
2023-06-01T08:06:00.804Z,101540.40
2023-06-01T08:07:32.843Z,101545.40
2023-06-01T08:09:05.164Z,101542.20
2023-06-01T08:10:37.174Z,101539.20
2023-06-01T08:12:09.519Z,101543.00
2023-06-01T08:13:42.289Z,101541.20
2023-06-01T08:15:14.084Z,101535.40
2023-06-01T08:16:46.579Z,101529.80
2023-06-01T08:18:20.809Z,101526.80
2023-06-01T08:19:53.786Z,101527.00
2023-06-01T08:21:27.565Z,101527.00
2023-06-01T08:22:59.425Z,101528.00
2023-06-01T08:24:33.387Z,101525.00
2023-06-01T08:26:05.834Z,101520.80
2023-06-01T08:27:37.697Z,101519.40
2023-06-01T08:29:09.540Z,101522.60
2023-06-01T08:30:41.560Z,101516.80
2023-06-01T08:32:14.349Z,101515.60
2023-06-01T08:33:46.773Z,101518.60
2023-06-01T08:35:20.426Z,101509.40
2023-06-01T08:36:53.400Z,101511.80
2023-06-01T08:38:33.307Z,101508.00
2023-06-01T08:40:08.714Z,101509.40
2023-06-01T08:41:59.587Z,101511.40
2023-06-01T08:43:34.770Z,101510.20
2023-06-01T08:45:07.672Z,101508.00
2023-06-01T08:46:43.316Z,101507.20
2023-06-01T08:48:19.801Z,101506.60
2023-06-01T08:49:53.859Z,101509.20
2023-06-01T08:51:27.003Z,101507.60
2023-06-01T08:53:00.997Z,101506.00
2023-06-01T08:54:34.057Z,101503.60
2023-06-01T08:56:06.498Z,101499.00
2023-06-01T08:57:42.915Z,101499.20
2023-06-01T08:59:14.871Z,101492.80
2023-06-01T09:00:55.004Z,101494.60
2023-06-01T09:02:28.751Z,101491.00
2023-06-01T09:04:01.084Z,101492.20
2023-06-01T09:05:32.931Z,101491.80
2023-06-01T09:07:05.633Z,101487.60
2023-06-01T09:08:40.004Z,101487.20
2023-06-01T09:10:12.725Z,101481.60
2023-06-01T09:11:45.846Z,101477.00
2023-06-01T09:13:36.874Z,101480.20
2023-06-01T09:15:12.838Z,101477.00
2023-06-01T09:16:44.708Z,101482.20
2023-06-01T09:18:16.547Z,101476.80
2023-06-01T09:19:48.990Z,101473.00
2023-06-01T09:21:21.645Z,101471.20
2023-06-01T09:22:54.798Z,101475.80
2023-06-01T09:24:27.751Z,101473.60
2023-06-01T09:26:10.779Z,101471.80
2023-06-01T09:27:50.287Z,101465.20
2023-06-01T09:29:22.158Z,101470.20
2023-06-01T09:30:54.211Z,101472.20
2023-06-01T09:32:26.493Z,101471.00
2023-06-01T09:34:02.653Z,101471.60
2023-06-01T09:35:48.555Z,101469.80
2023-06-01T09:37:20.453Z,101464.80
2023-06-01T09:39:02.346Z,101470.40
2023-06-01T09:40:35.986Z,101464.80
2023-06-01T09:42:08.598Z,101460.60
2023-06-01T09:43:44.592Z,101459.00
2023-06-01T09:45:26.155Z,101455.80
2023-06-01T09:47:14.089Z,101454.80
2023-06-01T09:48:46.214Z,101460.40
2023-06-01T09:50:39.492Z,101455.80
2023-06-01T09:52:18.157Z,101458.00
2023-06-01T09:53:50.069Z,101450.80
2023-06-01T09:55:22.009Z,101456.80
2023-06-01T09:57:09.251Z,101449.80
2023-06-01T09:58:43.032Z,101450.00
2023-06-01T10:00:25.607Z,101451.40
2023-06-01T10:01:59.728Z,101447.80
2023-06-01T10:03:32.195Z,101448.80
2023-06-01T10:05:04.420Z,101446.20
2023-06-01T10:06:41.529Z,101440.80
2023-06-01T10:08:16.042Z,101445.20
2023-06-01T10:09:56.195Z,101446.00
2023-06-01T10:11:30.208Z,101446.80
2023-06-01T10:13:02.094Z,101447.80
2023-06-01T10:14:34.743Z,101440.40
2023-06-01T10:16:09.156Z,101440.80
2023-06-01T10:17:43.732Z,101441.40
2023-06-01T10:19:15.527Z,101440.20
2023-06-01T10:20:47.960Z,101435.80
2023-06-01T10:22:20.088Z,101439.20
2023-06-01T10:23:52.083Z,101441.40
2023-06-01T10:25:26.075Z,101439.80
2023-06-01T10:27:27.045Z,101434.80
2023-06-01T10:28:59.771Z,101429.20
2023-06-01T10:30:32.037Z,101430.80
2023-06-01T10:32:04.210Z,101428.60
2023-06-01T10:33:54.235Z,101430.80
2023-06-01T10:35:28.729Z,101426.80
2023-06-01T10:37:01.481Z,101422.60
2023-06-01T10:38:33.596Z,101423.80
2023-06-01T10:40:17.924Z,101422.80
2023-06-01T10:41:49.903Z,101420.80
2023-06-01T10:43:36.923Z,101424.40
2023-06-01T10:45:09.672Z,101422.80
2023-06-01T10:46:45.520Z,101421.20
2023-06-01T10:48:17.858Z,101419.20
2023-06-01T10:49:49.533Z,101421.20
2023-06-01T10:51:25.013Z,101417.40
2023-06-01T10:53:17.757Z,101422.20
2023-06-01T10:54:50.801Z,101415.40
2023-06-01T10:56:28.276Z,101416.80
2023-06-01T10:58:27.096Z,101411.60
2023-06-01T11:00:18.984Z,101418.20
2023-06-01T11:01:51.231Z,101414.40
2023-06-01T11:03:47.345Z,101417.00
2023-06-01T11:05:36.498Z,101416.60
2023-06-01T11:07:39.448Z,101413.60
2023-06-01T11:09:13.389Z,101416.20
2023-06-01T11:11:07.215Z,101420.00
2023-06-01T11:13:15.450Z,101414.00
2023-06-01T11:15:13.471Z,101415.00
2023-06-01T11:16:46.228Z,101418.00
2023-06-01T11:19:01.738Z,101411.80
2023-06-01T11:20:40.755Z,101412.40
2023-06-01T11:22:13.352Z,101412.40
2023-06-01T11:23:46.564Z,101412.60
2023-06-01T11:25:19.373Z,101416.20
2023-06-01T11:26:51.919Z,101414.60
2023-06-01T11:28:23.658Z,101410.80
2023-06-01T11:29:56.500Z,101410.60
2023-06-01T11:31:29.478Z,101407.00
2023-06-01T11:33:04.075Z,101412.80
2023-06-01T11:34:40.258Z,101414.00
2023-06-01T11:36:15.981Z,101412.80
2023-06-01T11:37:48.618Z,101416.40
2023-06-01T11:39:26.383Z,101413.60
2023-06-01T11:41:04.448Z,101405.80
2023-06-01T11:42:37.587Z,101402.00
2023-06-01T11:44:09.547Z,101405.40
2023-06-01T11:45:42.694Z,101408.80
2023-06-01T11:47:14.823Z,101404.60
2023-06-01T11:49:06.932Z,101401.40
2023-06-01T11:50:47.704Z,101398.00
2023-06-01T11:52:21.266Z,101396.60
2023-06-01T11:53:55.217Z,101402.00
2023-06-01T11:55:27.929Z,101400.20
2023-06-01T11:56:59.839Z,101403.20
2023-06-01T11:58:31.872Z,101402.00
2023-06-01T12:00:05.164Z,101401.60
2023-06-01T12:01:44.116Z,101391.80
2023-06-01T12:03:17.624Z,101397.60
2023-06-01T12:05:00.050Z,101397.40
2023-06-01T12:06:32.319Z,101400.40
2023-06-01T12:08:04.761Z,101399.00
2023-06-01T12:09:38.123Z,101404.20
2023-06-01T12:11:10.695Z,101398.40
2023-06-01T12:12:46.889Z,101400.20
2023-06-01T12:14:19.261Z,101398.40
2023-06-01T12:15:54.294Z,101403.00
2023-06-01T12:17:26.886Z,101406.20
2023-06-01T12:18:58.802Z,101403.80
2023-06-01T12:20:33.547Z,101407.60
2023-06-01T12:22:05.839Z,101407.20
2023-06-01T12:23:37.979Z,101411.40
2023-06-01T12:25:10.549Z,101407.20
2023-06-01T12:26:42.339Z,101411.40
2023-06-01T12:28:14.248Z,101401.60
2023-06-01T12:29:48.723Z,101401.40
2023-06-01T12:31:21.135Z,101398.40
2023-06-01T12:32:52.948Z,101396.00
2023-06-01T12:34:25.067Z,101395.00
2023-06-01T12:35:56.863Z,101394.80
2023-06-01T12:37:31.882Z,101392.40
2023-06-01T12:39:06.481Z,101393.20
2023-06-01T12:40:39.454Z,101396.20
2023-06-01T12:42:12.875Z,101397.80
2023-06-01T12:43:47.266Z,101396.80
2023-06-01T12:45:20.641Z,101401.40
2023-06-01T12:47:01.876Z,101403.40
2023-06-01T12:48:37.608Z,101395.80
2023-06-01T12:50:12.236Z,101396.00
2023-06-01T12:51:45.030Z,101388.00
2023-06-01T12:53:16.768Z,101387.80
2023-06-01T12:54:51.485Z,101387.20
2023-06-01T12:56:23.290Z,101385.20
2023-06-01T12:57:56.544Z,101387.40
2023-06-01T12:59:28.404Z,101393.60
2023-06-01T13:01:00.609Z,101390.00
2023-06-01T13:02:32.494Z,101390.20
2023-06-01T13:04:04.698Z,101389.80
2023-06-01T13:05:36.994Z,101390.80
2023-06-01T13:07:09.025Z,101384.00
2023-06-01T13:08:41.052Z,101383.60
2023-06-01T13:10:14.726Z,101387.40
2023-06-01T13:11:46.607Z,101389.60
2023-06-01T13:13:18.716Z,101390.20
2023-06-01T13:14:50.793Z,101390.00
2023-06-01T13:16:22.936Z,101389.40
2023-06-01T13:17:56.421Z,101387.00
2023-06-01T13:19:28.296Z,101390.00
2023-06-01T13:21:00.052Z,101389.40
2023-06-01T13:22:31.853Z,101388.80
2023-06-01T13:24:04.535Z,101388.40
2023-06-01T13:25:36.871Z,101387.80
2023-06-01T13:27:08.734Z,101382.80
2023-06-01T13:28:40.762Z,101390.40
2023-06-01T13:30:14.210Z,101382.80
2023-06-01T13:31:47.348Z,101385.40
2023-06-01T13:33:19.196Z,101381.00
2023-06-01T13:34:51.372Z,101379.40
2023-06-01T13:36:23.174Z,101381.60
2023-06-01T13:37:55.451Z,101383.60
2023-06-01T13:39:27.210Z,101382.40
2023-06-01T13:40:59.191Z,101379.40
2023-06-01T13:42:31.245Z,101373.40
2023-06-01T13:44:03.914Z,101377.80
2023-06-01T13:45:35.855Z,101376.00
2023-06-01T13:47:08.407Z,101377.00
2023-06-01T13:48:40.399Z,101377.80
2023-06-01T13:50:15.365Z,101374.80
2023-06-01T13:51:47.129Z,101374.40
2023-06-01T13:53:18.863Z,101373.20
2023-06-01T13:54:50.589Z,101367.80
2023-06-01T13:56:22.362Z,101366.60
2023-06-01T13:57:54.175Z,101366.60
2023-06-01T13:59:26.333Z,101363.20
2023-06-01T14:00:58.696Z,101369.00
2023-06-01T14:02:31.355Z,101360.60
2023-06-01T14:04:04.505Z,101365.20
2023-06-01T14:05:49.284Z,101362.00
2023-06-01T14:07:23.771Z,101360.00
2023-06-01T14:08:55.625Z,101362.00
2023-06-01T14:10:29.173Z,101356.20
2023-06-01T14:12:01.006Z,101357.60
2023-06-01T14:13:32.853Z,101354.00
2023-06-01T14:15:05.332Z,101349.80
2023-06-01T14:16:38.226Z,101342.40
2023-06-01T14:18:10.335Z,101338.20
2023-06-01T14:19:42.265Z,101333.00
2023-06-01T14:21:14.091Z,101333.60
2023-06-01T14:22:46.784Z,101334.80
2023-06-01T14:24:18.539Z,101334.00
2023-06-01T14:25:50.448Z,101330.60
2023-06-01T14:27:22.300Z,101328.00
2023-06-01T14:28:55.469Z,101324.20
2023-06-01T14:30:28.170Z,101327.20
2023-06-01T14:32:00.211Z,101325.60
2023-06-01T14:33:32.179Z,101319.60
2023-06-01T14:35:04.304Z,101323.40
2023-06-01T14:36:46.817Z,101319.00
2023-06-01T14:38:19.768Z,101316.80
2023-06-01T14:39:51.744Z,101320.60
2023-06-01T14:41:23.696Z,101323.20
2023-06-01T14:42:55.537Z,101321.00
2023-06-01T14:44:27.285Z,101324.00
2023-06-01T14:45:59.624Z,101323.40
2023-06-01T14:47:31.527Z,101316.80
2023-06-01T14:49:05.210Z,101315.20
2023-06-01T14:50:37.033Z,101317.00
2023-06-01T14:52:08.881Z,101312.20
2023-06-01T14:53:40.749Z,101315.00
2023-06-01T14:55:14.480Z,101312.40
2023-06-01T14:56:48.481Z,101309.40
2023-06-01T14:58:21.007Z,101304.40
2023-06-01T15:00:03.383Z,101300.40
2023-06-01T15:01:36.444Z,101297.00
2023-06-01T15:03:08.854Z,101290.80
2023-06-01T15:04:40.747Z,101295.80
2023-06-01T15:06:12.556Z,101294.60
2023-06-01T15:07:44.329Z,101294.60
2023-06-01T15:09:16.461Z,101287.80
2023-06-01T15:10:49.262Z,101284.40
2023-06-01T15:12:21.262Z,101283.20
2023-06-01T15:13:53.107Z,101279.80
2023-06-01T15:15:25.319Z,101282.20
2023-06-01T15:16:57.188Z,101291.40
2023-06-01T15:18:29.047Z,101284.00
2023-06-01T15:20:00.997Z,101285.40
2023-06-01T15:21:32.806Z,101285.40
2023-06-01T15:23:04.690Z,101286.20
2023-06-01T15:24:36.525Z,101287.20
2023-06-01T15:26:08.500Z,101293.20
2023-06-01T15:27:40.802Z,101289.40
2023-06-01T15:29:12.576Z,101284.40
2023-06-01T15:30:44.350Z,101287.20
2023-06-01T15:32:16.749Z,101287.20
2023-06-01T15:33:48.600Z,101290.80
2023-06-01T15:35:20.540Z,101288.60
2023-06-01T15:36:52.653Z,101290.80
2023-06-01T15:38:24.490Z,101292.40
2023-06-01T15:39:56.480Z,101287.60
2023-06-01T15:41:28.940Z,101286.60
2023-06-01T15:43:00.870Z,101290.40
2023-06-01T15:44:32.897Z,101277.40
2023-06-01T15:46:06.448Z,101278.40
2023-06-01T15:47:38.721Z,101280.80
2023-06-01T15:49:10.768Z,101272.20
2023-06-01T15:50:42.737Z,101275.80
2023-06-01T15:52:14.503Z,101272.40
2023-06-01T15:53:46.363Z,101279.00
2023-06-01T15:55:18.156Z,101284.80
2023-06-01T15:56:50.085Z,101276.40
2023-06-01T15:58:22.037Z,101269.80
2023-06-01T15:59:54.106Z,101269.40
2023-06-01T16:03:00.976Z,101266.00
2023-06-01T16:04:32.955Z,101269.00
2023-06-01T16:06:05.026Z,101268.40
2023-06-01T16:07:36.855Z,101265.00
2023-06-01T16:09:08.951Z,101259.80
2023-06-01T16:10:40.789Z,101259.40
2023-06-01T16:12:12.600Z,101256.00
2023-06-01T16:13:44.406Z,101256.60
2023-06-01T16:15:16.244Z,101251.00
2023-06-01T16:16:49.363Z,101247.80
2023-06-01T16:18:21.234Z,101245.20
2023-06-01T16:19:53.056Z,101243.00
2023-06-01T16:21:25.034Z,101241.20
2023-06-01T16:22:56.777Z,101240.00
2023-06-01T16:24:28.806Z,101238.60
2023-06-01T16:26:00.621Z,101238.00
2023-06-01T16:27:32.468Z,101236.00
2023-06-01T16:29:05.211Z,101232.80
2023-06-01T16:30:37.376Z,101235.60
2023-06-01T16:32:09.442Z,101234.00
2023-06-01T16:33:41.338Z,101233.60
2023-06-01T16:35:13.443Z,101236.60
2023-06-01T16:36:45.297Z,101232.00
2023-06-01T16:38:17.070Z,101230.80
2023-06-01T16:39:49.160Z,101228.40
2023-06-01T16:41:22.487Z,101226.20
2023-06-01T16:42:54.211Z,101225.60
2023-06-01T16:44:26.464Z,101224.20
2023-06-01T16:45:58.291Z,101224.60
2023-06-01T16:47:30.201Z,101230.40
2023-06-01T16:49:02.037Z,101225.20
2023-06-01T16:50:34.823Z,101226.00
2023-06-01T16:52:06.821Z,101224.20
2023-06-01T16:53:38.922Z,101228.20
2023-06-01T16:55:11.446Z,101230.60
2023-06-01T16:56:43.218Z,101232.60
2023-06-01T16:58:15.229Z,101236.40
2023-06-01T16:59:47.143Z,101233.40
2023-06-01T17:01:19.178Z,101230.40
2023-06-01T17:02:51.220Z,101233.80
2023-06-01T17:04:23.452Z,101239.00
2023-06-01T17:05:56.190Z,101238.80
2023-06-01T17:07:28.249Z,101233.20
2023-06-01T17:09:01.391Z,101234.80
2023-06-01T17:10:33.646Z,101234.80
2023-06-01T17:12:06.423Z,101231.20
2023-06-01T17:13:38.289Z,101236.20
2023-06-01T17:15:10.655Z,101235.00
2023-06-01T17:16:42.779Z,101234.00
2023-06-01T17:18:14.807Z,101237.40
2023-06-01T17:19:46.792Z,101239.60
2023-06-01T17:21:18.690Z,101237.60
2023-06-01T17:22:51.700Z,101238.40
2023-06-01T17:24:23.558Z,101238.60
2023-06-01T17:25:55.708Z,101240.20
2023-06-01T17:27:28.009Z,101240.60
2023-06-01T17:28:59.925Z,101240.40
2023-06-01T17:30:32.650Z,101241.80
2023-06-01T17:32:05.518Z,101245.40
2023-06-01T17:33:37.474Z,101247.20
2023-06-01T17:35:09.841Z,101243.00
2023-06-01T17:36:43.015Z,101242.80
2023-06-01T17:38:14.980Z,101244.00
2023-06-01T17:39:46.845Z,101247.60
2023-06-01T17:41:18.643Z,101244.60
2023-06-01T17:42:50.414Z,101245.60
2023-06-01T17:44:22.371Z,101241.80
2023-06-01T17:45:54.117Z,101243.40
2023-06-01T17:47:26.024Z,101245.00
2023-06-01T17:48:57.960Z,101249.20
2023-06-01T17:50:29.865Z,101244.00
2023-06-01T17:52:01.876Z,101245.00
2023-06-01T17:53:41.293Z,101246.00
2023-06-01T17:55:13.985Z,101251.60
2023-06-01T17:56:45.925Z,101252.40